createdAt,value
2023-01-29T00:00:09.999Z,100034.53
2023-01-29T00:02:37.653Z,100041.34
2023-01-29T00:05:21.000Z,100044.72
2023-01-29T00:07:53.355Z,100049.72
2023-01-29T00:10:19.971Z,100043.66
2023-01-29T00:12:46.542Z,100051.56
2023-01-29T00:15:13.113Z,100056.19
2023-01-29T00:17:41.390Z,100062.06
2023-01-29T00:20:08.995Z,100057.84
2023-01-29T00:22:36.570Z,100055.13
2023-01-29T00:25:03.614Z,100045.31
2023-01-29T00:27:32.040Z,100033.53
2023-01-29T00:30:12.840Z,100040.34
2023-01-29T00:32:40.719Z,100046.09
2023-01-29T00:35:08.584Z,100052.56
2023-01-29T00:37:35.539Z,100042.81
2023-01-29T00:40:02.185Z,100040.88
2023-01-29T00:42:47.495Z,100040.81
2023-01-29T00:45:14.495Z,100039.19
2023-01-29T00:47:41.094Z,100040.03
2023-01-29T00:50:11.152Z,100028.88
2023-01-29T00:52:38.388Z,100031.66
2023-01-29T00:55:06.141Z,100034.88
2023-01-29T00:57:37.034Z,100022.72
2023-01-29T01:00:07.814Z,100023.63
2023-01-29T01:02:53.301Z,100020.06
2023-01-29T01:05:20.397Z,100010.22
2023-01-29T01:07:57.091Z,100011.06
2023-01-29T01:10:28.849Z,100002.97
2023-01-29T01:13:02.735Z,100005.25
2023-01-29T01:15:36.393Z,100001.53
2023-01-29T01:18:04.996Z,100016.41
2023-01-29T01:20:35.000Z,99998.56
2023-01-29T01:23:02.671Z,99992.13
2023-01-29T01:25:29.304Z,99985.28
2023-01-29T01:30:26.390Z,99982.16
2023-01-29T01:32:53.681Z,99982.19
2023-01-29T01:35:20.348Z,99977.69
2023-01-29T01:37:46.909Z,99972.97
2023-01-29T01:40:18.981Z,99973.13
2023-01-29T01:42:56.329Z,99974.53
2023-01-29T01:45:25.797Z,99962.91
2023-01-29T01:48:14.356Z,99965.50
2023-01-29T01:51:05.675Z,99967.63
2023-01-29T01:53:41.919Z,99967.63
2023-01-29T01:56:16.726Z,99960.28
2023-01-29T01:58:52.184Z,99967.13
2023-01-29T02:01:26.317Z,99969.16
2023-01-29T02:04:26.703Z,99968.66
2023-01-29T02:07:13.306Z,99966.41
2023-01-29T02:09:47.658Z,99971.00
2023-01-29T02:12:16.918Z,99986.34
2023-01-29T02:14:44.415Z,99986.44
2023-01-29T02:17:16.893Z,99985.47
2023-01-29T02:20:27.252Z,99994.28
2023-01-29T02:23:27.046Z,99997.91
2023-01-29T02:26:10.799Z,100006.81
2023-01-29T02:28:45.348Z,100005.34
2023-01-29T02:31:40.107Z,100013.00
2023-01-29T02:34:25.908Z,100014.75
2023-01-29T02:37:09.415Z,100007.72
2023-01-29T02:40:07.953Z,100012.28
2023-01-29T02:42:54.123Z,100009.16
2023-01-29T02:45:48.198Z,100009.31
2023-01-29T02:48:22.571Z,100001.66
2023-01-29T02:51:10.958Z,99987.91
2023-01-29T02:54:02.763Z,99986.25
2023-01-29T02:56:54.360Z,99976.34
2023-01-29T02:59:35.461Z,99973.59
2023-01-29T03:02:19.109Z,99990.31
2023-01-29T03:04:53.821Z,99985.53
2023-01-29T03:07:44.569Z,99986.78
2023-01-29T03:10:31.002Z,99982.63
2023-01-29T03:13:15.146Z,99992.19
2023-01-29T03:16:16.009Z,99983.09
2023-01-29T03:18:57.382Z,99982.34
2023-01-29T03:21:59.859Z,99990.81
2023-01-29T03:24:58.677Z,99978.03
2023-01-29T03:27:51.742Z,99976.00
2023-01-29T03:30:38.609Z,99971.25
2023-01-29T03:33:10.152Z,99963.22
2023-01-29T03:35:44.673Z,99961.66
2023-01-29T03:38:11.822Z,99962.28
2023-01-29T03:41:12.619Z,99961.34
2023-01-29T03:43:55.057Z,99975.56
2023-01-29T03:46:40.766Z,99977.56
2023-01-29T03:49:21.851Z,99988.50
2023-01-29T03:52:13.890Z,99991.28
2023-01-29T03:55:01.011Z,100001.16
2023-01-29T03:58:32.102Z,99993.75
2023-01-29T04:01:04.859Z,99980.94
2023-01-29T04:03:38.369Z,99966.91
2023-01-29T04:06:21.251Z,99967.53
2023-01-29T04:09:10.797Z,99963.34
2023-01-29T04:11:43.294Z,99965.19
2023-01-29T04:14:10.034Z,99962.56
2023-01-29T04:16:42.172Z,99969.66
2023-01-29T04:19:08.839Z,99971.81
2023-01-29T04:21:37.483Z,99974.28
2023-01-29T04:24:06.450Z,99976.66
2023-01-29T04:27:21.542Z,99996.31
2023-01-29T04:30:11.828Z,99994.41
2023-01-29T04:33:11.367Z,99995.09
2023-01-29T04:36:29.438Z,100003.72
2023-01-29T04:39:22.300Z,99992.69
2023-01-29T04:42:05.794Z,99983.09
2023-01-29T04:44:49.765Z,99982.44
2023-01-29T04:47:44.883Z,99992.09
2023-01-29T04:50:44.257Z,99997.28
2023-01-29T04:53:32.127Z,99985.69
2023-01-29T04:56:18.767Z,99974.53
2023-01-29T04:58:55.813Z,99963.06
2023-01-29T05:01:29.627Z,99956.09
2023-01-29T05:03:57.172Z,99947.06
2023-01-29T05:06:25.226Z,99942.09
2023-01-29T05:08:53.602Z,99948.31
2023-01-29T05:11:20.953Z,99940.75
2023-01-29T05:13:53.915Z,99942.25
2023-01-29T05:16:27.086Z,99942.44
2023-01-29T05:18:54.050Z,99943.13
2023-01-29T05:21:22.983Z,99945.56
2023-01-29T05:24:12.639Z,99948.22
2023-01-29T05:26:58.398Z,99947.59
2023-01-29T05:29:24.980Z,99939.31
2023-01-29T05:31:53.696Z,99946.25
2023-01-29T05:34:20.647Z,99944.09
2023-01-29T05:36:47.210Z,99953.00
2023-01-29T05:39:13.980Z,99951.88
2023-01-29T05:41:40.773Z,99955.91
2023-01-29T05:44:07.431Z,99962.34
2023-01-29T05:46:34.105Z,99973.75
2023-01-29T05:49:00.727Z,99973.66
2023-01-29T05:51:32.000Z,99971.00
2023-01-29T05:54:01.495Z,99979.72
2023-01-29T05:56:28.121Z,99964.63
2023-01-29T05:58:55.423Z,99966.72
2023-01-29T06:01:25.401Z,99960.44
2023-01-29T06:03:52.184Z,99960.22
2023-01-29T06:06:18.938Z,99940.75
2023-01-29T06:08:45.804Z,99939.31
2023-01-29T06:11:14.487Z,99937.00
2023-01-29T06:13:41.251Z,99930.25
2023-01-29T06:16:09.446Z,99924.09
2023-01-29T06:18:40.366Z,99930.81
2023-01-29T06:21:11.949Z,99931.78
2023-01-29T06:23:38.990Z,99933.91
2023-01-29T06:26:13.275Z,99924.31
2023-01-29T06:28:40.179Z,99934.31
2023-01-29T06:31:26.574Z,99924.44
2023-01-29T06:33:54.969Z,99935.56
2023-01-29T06:36:31.657Z,99932.03
2023-01-29T06:38:58.241Z,99946.84
2023-01-29T06:41:25.503Z,99947.63
2023-01-29T06:43:52.951Z,99942.25
2023-01-29T06:46:19.989Z,99949.78
2023-01-29T06:48:46.693Z,99946.75
2023-01-29T06:51:13.344Z,99950.44
2023-01-29T06:53:43.360Z,99945.78
2023-01-29T06:56:11.245Z,99950.44
2023-01-29T06:58:38.501Z,99951.06
2023-01-29T07:01:15.494Z,99960.97
2023-01-29T07:03:52.340Z,99970.94
2023-01-29T07:06:19.564Z,99981.47
2023-01-29T07:08:46.446Z,99989.78
2023-01-29T07:11:13.075Z,99989.47
2023-01-29T07:13:39.742Z,99985.53
2023-01-29T07:16:07.401Z,99977.94
2023-01-29T07:18:34.028Z,99963.63
2023-01-29T07:21:06.372Z,99951.00
2023-01-29T07:23:34.769Z,99963.72
2023-01-29T07:26:04.580Z,99957.34
2023-01-29T07:28:31.211Z,99955.69
2023-01-29T07:31:00.771Z,99957.31
2023-01-29T07:33:27.464Z,99960.25
2023-01-29T07:35:54.025Z,99951.25
2023-01-29T07:38:20.828Z,99957.38
2023-01-29T07:40:47.875Z,99959.69
2023-01-29T07:43:14.882Z,99966.75
2023-01-29T07:45:41.584Z,99974.56
2023-01-29T07:48:12.102Z,99972.75
2023-01-29T07:50:39.769Z,99979.47
2023-01-29T07:53:06.434Z,99979.75
2023-01-29T07:55:33.732Z,99981.00
2023-01-29T07:58:02.992Z,99988.03
2023-01-29T08:00:31.199Z,100007.22
2023-01-29T08:03:07.344Z,100013.72
2023-01-29T08:05:34.241Z,100013.50
2023-01-29T08:08:06.858Z,99996.22
2023-01-29T08:10:35.827Z,99978.03
2023-01-29T08:13:04.368Z,99974.94
2023-01-29T08:15:32.030Z,99968.44
2023-01-29T08:17:58.855Z,99976.94
2023-01-29T08:20:26.025Z,99961.81
2023-01-29T08:23:21.985Z,99972.69
2023-01-29T08:25:48.573Z,99969.41
2023-01-29T08:28:15.240Z,99974.88
2023-01-29T08:30:41.964Z,99974.88
2023-01-29T08:33:08.639Z,99976.81
2023-01-29T08:35:35.415Z,99974.34
2023-01-29T08:38:04.788Z,99979.66
2023-01-29T08:40:34.464Z,99987.22
2023-01-29T08:43:05.491Z,99996.03
2023-01-29T08:45:40.173Z,100002.56
2023-01-29T08:48:08.041Z,99986.31
2023-01-29T08:50:38.052Z,99983.03
2023-01-29T08:53:14.722Z,99980.81
2023-01-29T08:55:42.193Z,99975.16
2023-01-29T08:58:11.535Z,99975.00
2023-01-29T09:00:38.920Z,100001.91
2023-01-29T09:03:07.598Z,100013.00
2023-01-29T09:05:39.168Z,100013.59
2023-01-29T09:08:15.853Z,100011.31
2023-01-29T09:10:42.465Z,100006.13
2023-01-29T09:13:09.074Z,100017.38
2023-01-29T09:15:35.631Z,100010.75
2023-01-29T09:18:05.859Z,100018.56
2023-01-29T09:20:33.234Z,100035.63
2023-01-29T09:23:08.030Z,100041.63
2023-01-29T09:25:35.494Z,100040.69
2023-01-29T09:28:02.136Z,100029.66
2023-01-29T09:30:29.567Z,100024.38
2023-01-29T09:32:56.166Z,100038.81
2023-01-29T09:35:25.726Z,100031.41
2023-01-29T09:38:01.053Z,100040.66
2023-01-29T09:40:51.572Z,100039.78
2023-01-29T09:43:48.246Z,100042.88
2023-01-29T09:46:23.853Z,100030.28
2023-01-29T09:49:01.933Z,100028.84
2023-01-29T09:51:35.501Z,100018.09
2023-01-29T09:54:27.376Z,99993.16
2023-01-29T09:56:57.114Z,99994.91
2023-01-29T09:59:27.292Z,99993.75
2023-01-29T10:02:16.012Z,99989.78
2023-01-29T10:05:24.727Z,99984.88
2023-01-29T10:08:29.541Z,99980.28
2023-01-29T10:11:42.509Z,99974.56
2023-01-29T10:14:44.287Z,99969.66
2023-01-29T10:17:42.405Z,99953.91
2023-01-29T10:20:30.559Z,99954.63
2023-01-29T10:23:19.071Z,99963.84
2023-01-29T10:25:47.243Z,99966.50
2023-01-29T10:28:24.355Z,99964.81
2023-01-29T10:31:00.593Z,99954.03
2023-01-29T10:34:03.351Z,99950.47
2023-01-29T10:36:44.752Z,99939.81
2023-01-29T10:39:23.416Z,99929.06
2023-01-29T10:42:00.669Z,99925.81
2023-01-29T10:44:54.852Z,99926.38
2023-01-29T10:48:04.736Z,99919.13
2023-01-29T10:51:18.598Z,99913.06
2023-01-29T10:54:21.490Z,99902.19
2023-01-29T10:57:16.934Z,99900.59
2023-01-29T10:59:55.468Z,99910.22
2023-01-29T11:02:22.579Z,99910.03
2023-01-29T11:04:49.356Z,99908.19
2023-01-29T11:07:19.676Z,99898.09
2023-01-29T11:09:57.742Z,99899.16
2023-01-29T11:12:30.567Z,99900.50
2023-01-29T11:15:22.580Z,99905.72
2023-01-29T11:18:03.647Z,99910.53
2023-01-29T11:20:32.076Z,99899.72
2023-01-29T11:23:00.187Z,99891.44
2023-01-29T11:25:28.770Z,99876.19
2023-01-29T11:28:01.818Z,99871.97
2023-01-29T11:30:34.170Z,99860.78
2023-01-29T11:33:20.608Z,99855.09
2023-01-29T11:35:47.425Z,99867.72
2023-01-29T11:38:21.007Z,99856.06
2023-01-29T11:40:48.633Z,99850.06
2023-01-29T11:43:32.478Z,99848.72
2023-01-29T11:46:12.302Z,99843.59
2023-01-29T11:48:48.778Z,99840.41
2023-01-29T11:51:28.353Z,99838.69
2023-01-29T11:54:05.930Z,99842.28
2023-01-29T11:56:42.821Z,99838.56
2023-01-29T11:59:40.458Z,99838.25
2023-01-29T12:02:27.903Z,99821.47
2023-01-29T12:04:58.309Z,99816.22
2023-01-29T12:07:25.356Z,99810.84
2023-01-29T12:09:58.597Z,99804.47
2023-01-29T12:12:35.633Z,99801.25
2023-01-29T12:15:19.546Z,99786.84
2023-01-29T12:18:06.276Z,99790.94
2023-01-29T12:21:01.170Z,99781.44
2023-01-29T12:23:41.925Z,99780.97
2023-01-29T12:26:41.061Z,99770.16
2023-01-29T12:29:33.600Z,99765.53
2023-01-29T12:32:39.791Z,99757.19
2023-01-29T12:35:36.571Z,99744.09
2023-01-29T12:38:18.042Z,99749.16
2023-01-29T12:40:55.195Z,99746.97
2023-01-29T12:43:44.446Z,99736.88
2023-01-29T12:46:32.883Z,99727.63
2023-01-29T12:49:04.912Z,99730.84
2023-01-29T12:51:40.871Z,99717.88
2023-01-29T12:54:13.245Z,99724.53
2023-01-29T12:56:47.059Z,99716.97
2023-01-29T12:59:30.386Z,99719.09
2023-01-29T13:02:09.767Z,99723.59
2023-01-29T13:04:48.490Z,99716.28
2023-01-29T13:07:27.337Z,99725.75
2023-01-29T13:10:07.460Z,99710.94
2023-01-29T13:12:35.862Z,99708.63
2023-01-29T13:15:28.825Z,99712.44
2023-01-29T13:18:37.976Z,99704.38
2023-01-29T13:21:05.665Z,99704.59
2023-01-29T13:23:38.093Z,99703.03
2023-01-29T13:26:05.844Z,99710.44
2023-01-29T13:28:33.539Z,99708.28
2023-01-29T13:31:20.859Z,99717.88
2023-01-29T13:34:11.532Z,99708.16
2023-01-29T13:36:44.371Z,99711.91
2023-01-29T13:39:44.492Z,99711.28
2023-01-29T13:42:25.148Z,99706.78
2023-01-29T13:44:55.922Z,99707.91
2023-01-29T13:47:32.039Z,99699.91
2023-01-29T13:50:07.942Z,99701.13
2023-01-29T13:53:03.811Z,99696.81
2023-01-29T13:55:39.834Z,99689.63
2023-01-29T13:58:13.887Z,99690.66
2023-01-29T14:00:40.412Z,99688.13
2023-01-29T14:03:14.397Z,99693.19
2023-01-29T14:05:43.546Z,99675.88
2023-01-29T14:08:12.849Z,99675.03
2023-01-29T14:10:43.476Z,99666.75
2023-01-29T14:13:27.681Z,99665.97
2023-01-29T14:15:57.157Z,99666.56
2023-01-29T14:18:26.267Z,99660.63
2023-01-29T14:21:16.185Z,99650.47
2023-01-29T14:23:52.697Z,99657.06
2023-01-29T14:26:43.487Z,99656.16
2023-01-29T14:29:16.464Z,99646.84
2023-01-29T14:31:59.937Z,99654.91
2023-01-29T14:34:44.896Z,99646.81
2023-01-29T14:37:19.434Z,99640.44
2023-01-29T14:39:51.441Z,99632.97
2023-01-29T14:42:26.931Z,99641.22
2023-01-29T14:45:07.258Z,99640.44
2023-01-29T14:47:33.793Z,99639.69
2023-01-29T14:50:29.218Z,99634.88
2023-01-29T14:53:27.872Z,99637.19
2023-01-29T14:56:24.910Z,99630.34
2023-01-29T14:58:59.113Z,99625.03
2023-01-29T15:01:35.893Z,99623.09
2023-01-29T15:04:31.805Z,99618.69
2023-01-29T15:07:07.337Z,99617.16
2023-01-29T15:09:46.322Z,99614.59
2023-01-29T15:12:45.389Z,99614.09
2023-01-29T15:15:33.939Z,99608.47
2023-01-29T15:18:16.089Z,99606.50
2023-01-29T15:20:43.976Z,99589.63
2023-01-29T15:23:32.920Z,99589.72
2023-01-29T15:26:03.172Z,99587.66
2023-01-29T15:28:32.296Z,99583.16
2023-01-29T15:31:04.076Z,99577.16
2023-01-29T15:33:32.021Z,99580.50
2023-01-29T15:36:07.996Z,99576.38
2023-01-29T15:38:35.513Z,99567.53
2023-01-29T15:41:15.736Z,99569.44
2023-01-29T15:43:55.952Z,99575.34
2023-01-29T15:46:34.124Z,99579.94
2023-01-29T15:49:07.320Z,99577.06
2023-01-29T15:51:34.790Z,99573.41
2023-01-29T15:54:10.455Z,99581.16
2023-01-29T15:56:50.624Z,99575.84
2023-01-29T15:59:22.774Z,99573.78
2023-01-29T16:01:49.433Z,99593.25
2023-01-29T16:04:26.784Z,99585.56
2023-01-29T16:06:58.311Z,99589.41
2023-01-29T16:09:27.179Z,99595.84
2023-01-29T16:11:57.542Z,99605.50
2023-01-29T16:14:25.610Z,99607.41
2023-01-29T16:16:53.616Z,99616.91
2023-01-29T16:19:27.487Z,99615.22
2023-01-29T16:22:01.434Z,99626.94
2023-01-29T16:24:30.977Z,99622.25
2023-01-29T16:27:13.508Z,99630.16
2023-01-29T16:29:40.363Z,99623.47
2023-01-29T16:32:08.941Z,99629.44
2023-01-29T16:34:43.426Z,99630.19
2023-01-29T16:37:27.839Z,99642.22
2023-01-29T16:39:55.108Z,99631.94
2023-01-29T16:42:27.237Z,99627.56
2023-01-29T16:45:06.255Z,99632.56
2023-01-29T16:47:39.169Z,99636.00
2023-01-29T16:50:40.486Z,99626.78
2023-01-29T16:53:24.397Z,99632.94
2023-01-29T16:55:52.282Z,99630.16
2023-01-29T16:58:28.051Z,99631.88
2023-01-29T17:01:11.793Z,99632.38
2023-01-29T17:03:40.129Z,99634.28
2023-01-29T17:06:21.547Z,99637.53
2023-01-29T17:08:48.356Z,99633.69
2023-01-29T17:11:30.402Z,99641.78
2023-01-29T17:14:03.929Z,99637.72
2023-01-29T17:16:34.956Z,99645.41
2023-01-29T17:19:01.746Z,99647.16
2023-01-29T17:21:31.342Z,99653.09
2023-01-29T17:23:57.937Z,99643.69
2023-01-29T17:26:24.739Z,99648.50
2023-01-29T17:28:52.457Z,99642.75
2023-01-29T17:31:19.229Z,99648.50
2023-01-29T17:33:46.070Z,99645.22
2023-01-29T17:36:17.217Z,99646.47
2023-01-29T17:38:44.489Z,99640.81
2023-01-29T17:41:26.212Z,99642.34
2023-01-29T17:43:52.801Z,99629.28
2023-01-29T17:46:20.330Z,99634.47
2023-01-29T17:48:49.061Z,99626.59
2023-01-29T17:51:17.777Z,99616.25
2023-01-29T17:53:46.847Z,99613.56
2023-01-29T17:56:23.466Z,99617.56
2023-01-29T17:58:50.180Z,99612.00
2023-01-29T18:01:16.814Z,99609.31
2023-01-29T18:03:43.506Z,99611.59
2023-01-29T18:06:21.701Z,99607.31
2023-01-29T18:08:48.250Z,99608.50
2023-01-29T18:11:15.122Z,99596.63
2023-01-29T18:13:41.931Z,99600.41
2023-01-29T18:16:09.186Z,99607.47
2023-01-29T18:18:35.933Z,99605.22
2023-01-29T18:21:02.678Z,99598.09
2023-01-29T18:23:31.006Z,99596.00
2023-01-29T18:25:57.694Z,99598.59
2023-01-29T18:28:25.891Z,99596.19
2023-01-29T18:30:52.987Z,99592.56
2023-01-29T18:33:19.714Z,99581.38
2023-01-29T18:35:49.137Z,99582.66
2023-01-29T18:38:16.897Z,99573.09
2023-01-29T18:40:43.927Z,99574.16
2023-01-29T18:43:10.564Z,99569.22
2023-01-29T18:45:37.236Z,99565.53
2023-01-29T18:48:04.923Z,99563.50
2023-01-29T18:50:31.955Z,99560.91
2023-01-29T18:52:58.602Z,99559.44
2023-01-29T18:55:26.488Z,99551.72
2023-01-29T18:58:26.559Z,99549.78
2023-01-29T19:00:41.109Z,99548.47
2023-01-29T19:03:07.686Z,99550.09
2023-01-29T19:05:34.377Z,99546.81
2023-01-29T19:08:01.690Z,99541.75
2023-01-29T19:10:28.332Z,99540.31
2023-01-29T19:12:55.752Z,99523.63
2023-01-29T19:15:22.665Z,99535.94
2023-01-29T19:17:50.759Z,99543.34
2023-01-29T19:20:17.867Z,99543.25
2023-01-29T19:22:44.646Z,99536.78
2023-01-29T19:25:11.533Z,99544.31
2023-01-29T19:27:38.278Z,99537.28
2023-01-29T19:30:05.727Z,99541.25
2023-01-29T19:32:32.822Z,99539.72
2023-01-29T19:34:59.456Z,99543.38
2023-01-29T19:37:26.239Z,99537.84
2023-01-29T19:39:53.689Z,99539.56
2023-01-29T19:42:20.870Z,99550.81
2023-01-29T19:44:47.627Z,99556.63
2023-01-29T19:47:14.270Z,99557.91
2023-01-29T19:49:41.028Z,99554.09
2023-01-29T19:52:14.817Z,99555.56
2023-01-29T19:54:46.482Z,99540.94
2023-01-29T19:57:13.081Z,99539.38
2023-01-29T19:59:45.617Z,99528.28
2023-01-29T20:02:12.541Z,99524.44
2023-01-29T20:04:43.448Z,99523.13
2023-01-29T20:07:10.092Z,99520.13
2023-01-29T20:09:36.672Z,99507.38
2023-01-29T20:12:03.379Z,99521.00
2023-01-29T20:14:29.940Z,99512.94
2023-01-29T20:16:56.493Z,99508.63
2023-01-29T20:19:23.171Z,99501.19
2023-01-29T20:21:49.807Z,99497.97
2023-01-29T20:24:16.549Z,99501.69
2023-01-29T20:26:46.125Z,99490.16
2023-01-29T20:29:13.511Z,99476.94
2023-01-29T20:31:40.109Z,99477.13
2023-01-29T20:34:06.855Z,99475.66
2023-01-29T20:36:36.112Z,99469.06
2023-01-29T20:39:03.042Z,99477.63
2023-01-29T20:41:29.687Z,99479.44
2023-01-29T20:43:56.366Z,99466.59
2023-01-29T20:46:23.034Z,99463.34
2023-01-29T20:48:53.021Z,99466.78
2023-01-29T20:51:20.310Z,99469.38
2023-01-29T20:53:47.948Z,99456.63
2023-01-29T20:56:17.080Z,99456.81
2023-01-29T20:58:46.382Z,99442.41
2023-01-29T21:01:18.420Z,99439.72
2023-01-29T21:03:46.575Z,99443.63
2023-01-29T21:06:14.442Z,99439.56
2023-01-29T21:08:41.301Z,99439.66
2023-01-29T21:11:09.538Z,99421.53
2023-01-29T21:13:36.901Z,99416.00
2023-01-29T21:16:04.296Z,99413.91
2023-01-29T21:18:32.113Z,99408.63
2023-01-29T21:20:58.743Z,99410.31
2023-01-29T21:23:25.397Z,99391.66
2023-01-29T21:25:52.004Z,99382.66
2023-01-29T21:28:18.607Z,99375.94
2023-01-29T21:30:46.282Z,99366.75
2023-01-29T21:33:15.740Z,99363.22
2023-01-29T21:35:42.375Z,99354.53
2023-01-29T21:38:09.188Z,99346.09
2023-01-29T21:40:35.969Z,99331.41
2023-01-29T21:43:12.763Z,99327.09
2023-01-29T21:45:40.746Z,99330.53
2023-01-29T21:48:08.624Z,99326.53
2023-01-29T21:50:35.556Z,99330.72
2023-01-29T21:53:02.816Z,99337.69
2023-01-29T21:55:35.375Z,99335.19
2023-01-29T21:58:02.074Z,99330.16
2023-01-29T22:00:28.665Z,99334.34
2023-01-29T22:02:55.512Z,99328.31
2023-01-29T22:05:22.197Z,99322.78
2023-01-29T22:07:49.617Z,99319.44
2023-01-29T22:10:18.540Z,99319.41
2023-01-29T22:12:45.874Z,99317.16
2023-01-29T22:15:13.906Z,99324.28
2023-01-29T22:17:41.537Z,99323.97
2023-01-29T22:20:13.600Z,99326.34
2023-01-29T22:22:40.486Z,99314.97
2023-01-29T22:25:07.632Z,99317.84
2023-01-29T22:27:34.318Z,99308.28
2023-01-29T22:30:01.215Z,99299.38
2023-01-29T22:32:27.993Z,99291.75
2023-01-29T22:34:54.598Z,99283.81
2023-01-29T22:37:21.195Z,99286.78
2023-01-29T22:39:47.822Z,99278.34
2023-01-29T22:42:14.425Z,99281.94
2023-01-29T22:44:41.282Z,99278.16
2023-01-29T22:47:08.004Z,99270.31
2023-01-29T22:49:34.663Z,99272.19
2023-01-29T22:52:10.307Z,99246.78
2023-01-29T22:54:44.496Z,99247.38
2023-01-29T22:57:13.972Z,99248.38
2023-01-29T22:59:40.846Z,99234.22
2023-01-29T23:02:08.619Z,99234.69
2023-01-29T23:04:35.486Z,99245.09
2023-01-29T23:07:02.963Z,99237.72
2023-01-29T23:09:29.593Z,99241.41
2023-01-29T23:11:56.174Z,99249.69
2023-01-29T23:14:22.752Z,99248.97
2023-01-29T23:16:49.410Z,99256.91
2023-01-29T23:19:15.990Z,99247.38
2023-01-29T23:21:42.566Z,99256.53
2023-01-29T23:24:10.059Z,99247.16
2023-01-29T23:26:55.431Z,99267.16
2023-01-29T23:29:22.017Z,99252.72
2023-01-29T23:31:48.695Z,99248.44
2023-01-29T23:34:18.249Z,99256.06
2023-01-29T23:36:47.703Z,99245.28
2023-01-29T23:39:14.321Z,99242.03
2023-01-29T23:41:40.975Z,99242.03
2023-01-29T23:44:07.733Z,99234.91
2023-01-29T23:46:34.544Z,99230.66
2023-01-29T23:49:01.464Z,99226.13
2023-01-29T23:51:28.071Z,99219.59
2023-01-29T23:53:54.826Z,99214.31
2023-01-29T23:56:24.250Z,99206.53
2023-01-29T23:58:57.905Z,99223.25
